KEOK

Details ICAO KEOK (EOK)
Name KEOKUK MUNI
Region United States
Timezone America/Chicago (UTC-6.0)
Plans Departing 1
Arriving 2
Stats Elevation 671 ft / 205 m (AMSL)
Location 40.459834° -91.429119°
Runways 2
Magnetic Variation 0.783° W
Sunrise 2017-12-13 13:22:01 UTC / 2017-12-13 07:22:01 Local
Sunset 2017-12-13 22:40:54 UTC / 2017-12-13 16:40:54 Local
Advertisement - Login to hide

Runways

ID Width Length Bearing (true) Bearing (mag) Surface Threshold Offset Overrun Length
08 100 ft / 30 m 5,487 ft / 1,673 m 85.69° 86.47° Concrete 0 ft / 0 m 0 ft / 0 m
14 100 ft / 30 m 3,571 ft / 1,088 m 142.07° 142.85° Concrete 0 ft / 0 m 0 ft / 0 m
26 100 ft / 30 m 5,487 ft / 1,673 m 265.70° 266.48° Concrete 0 ft / 0 m 0 ft / 0 m
32 100 ft / 30 m 3,571 ft / 1,088 m 322.08° 322.86° Concrete 0 ft / 0 m 0 ft / 0 m

Map

Weather


0- 5 10 15 20 25 30 35+ Temperature / ° C

Clouds and Precipitation
Forecast for 2017-12-13 18:00 UTC. Updated 6 minutes ago

Ground ~20,000 ft ~40,000 ft Winds

METAR

KEOK 131515Z AUTO 25016G22KT 10SM CLR 03/M03 A2952 RMK AO2

TAF

Not found

Frequencies

Recorded 118.37 MHz AWOS 3
Unicom 122.80 MHz CTAF/UNICOM
Warning: Do not use this data for real-world aviation or navigation. No guarantee of current accuracy is given.